createdAt,value
2023-03-06T00:00:47.610Z,2.56
2023-03-06T00:03:15.601Z,2.52
2023-03-06T00:05:43.539Z,2.50
2023-03-06T00:08:11.623Z,2.48
2023-03-06T00:10:40.302Z,2.42
2023-03-06T00:13:13.017Z,2.39
2023-03-06T00:15:41.252Z,2.35
2023-03-06T00:18:09.533Z,2.34
2023-03-06T00:20:39.583Z,2.27
2023-03-06T00:23:08.671Z,2.22
2023-03-06T00:25:38.874Z,2.17
2023-03-06T00:28:07.428Z,2.11
2023-03-06T00:30:36.594Z,2.08
2023-03-06T00:33:04.645Z,2.01
2023-03-06T00:35:32.865Z,1.96
2023-03-06T00:38:00.890Z,1.91
2023-03-06T00:40:28.926Z,1.84
2023-03-06T00:42:56.877Z,1.79
2023-03-06T00:45:24.870Z,1.76
2023-03-06T00:47:52.717Z,1.72
2023-03-06T00:50:20.709Z,1.67
2023-03-06T00:52:49.130Z,1.63
2023-03-06T00:55:17.198Z,1.59
2023-03-06T00:57:45.125Z,1.58
2023-03-06T01:00:14.998Z,1.60
2023-03-06T01:02:43.035Z,1.59
2023-03-06T01:05:12.922Z,1.58
2023-03-06T01:07:40.879Z,1.59
2023-03-06T01:10:09.510Z,1.58
2023-03-06T01:12:37.435Z,1.55
2023-03-06T01:15:07.081Z,1.52
2023-03-06T01:17:36.141Z,1.52
2023-03-06T01:20:04.660Z,1.51
2023-03-06T01:22:32.759Z,1.48
2023-03-06T01:25:00.884Z,1.45
2023-03-06T01:27:28.852Z,1.41
2023-03-06T01:29:57.025Z,1.41
2023-03-06T01:32:24.837Z,1.44
2023-03-06T01:34:52.727Z,1.44
2023-03-06T01:37:20.601Z,1.48
2023-03-06T01:39:48.447Z,1.44
2023-03-06T01:42:16.910Z,1.44
2023-03-06T01:45:11.373Z,1.48
2023-03-06T01:47:39.361Z,1.49
2023-03-06T01:50:11.871Z,1.52
2023-03-06T01:52:48.791Z,1.53
2023-03-06T01:55:22.676Z,1.49
2023-03-06T01:57:57.811Z,1.49
2023-03-06T02:00:28.618Z,1.46
2023-03-06T02:03:15.787Z,1.45
2023-03-06T02:05:45.063Z,1.42
2023-03-06T02:08:16.757Z,1.39
2023-03-06T02:11:11.613Z,1.39
2023-03-06T02:13:40.737Z,1.36
2023-03-06T02:16:09.932Z,1.35
2023-03-06T02:18:40.769Z,1.32
2023-03-06T02:21:22.774Z,1.27
2023-03-06T02:24:13.612Z,1.28
2023-03-06T02:26:44.935Z,1.27
2023-03-06T02:29:14.268Z,1.27
2023-03-06T02:31:43.119Z,1.24
2023-03-06T02:34:17.017Z,1.24
2023-03-06T02:36:58.423Z,1.28
2023-03-06T02:39:29.743Z,1.31
2023-03-06T02:41:57.929Z,1.28
2023-03-06T02:44:28.708Z,1.30
2023-03-06T02:46:56.572Z,1.38
2023-03-06T02:49:26.393Z,1.42
2023-03-06T02:51:54.514Z,1.45
2023-03-06T02:54:22.535Z,1.48
2023-03-06T02:56:51.079Z,1.49
2023-03-06T02:59:19.233Z,1.52
2023-03-06T03:01:47.797Z,1.53
2023-03-06T03:04:15.846Z,1.59
2023-03-06T03:06:44.027Z,1.62
2023-03-06T03:09:12.338Z,1.62
2023-03-06T03:11:40.674Z,1.64
2023-03-06T03:14:08.684Z,1.67
2023-03-06T03:16:39.124Z,1.67
2023-03-06T03:19:07.229Z,1.72
2023-03-06T03:21:35.660Z,1.73
2023-03-06T03:24:03.676Z,1.74
2023-03-06T03:26:31.646Z,1.76
2023-03-06T03:29:08.319Z,1.73
2023-03-06T03:31:36.356Z,1.73
2023-03-06T03:34:05.044Z,1.79
2023-03-06T03:36:36.549Z,1.81
2023-03-06T03:39:04.976Z,1.83
2023-03-06T03:41:33.910Z,1.81
2023-03-06T03:44:05.213Z,1.81
2023-03-06T03:46:33.730Z,1.79
2023-03-06T03:49:03.325Z,1.80
2023-03-06T03:51:31.353Z,1.81
2023-03-06T03:54:00.334Z,1.84
2023-03-06T03:56:32.447Z,1.86
2023-03-06T03:59:05.548Z,1.89
2023-03-06T04:01:41.326Z,1.89
2023-03-06T04:04:09.555Z,1.90
2023-03-06T04:06:38.065Z,1.94
2023-03-06T04:09:06.616Z,1.93
2023-03-06T04:11:36.082Z,1.94
2023-03-06T04:14:04.299Z,1.96
2023-03-06T04:16:32.671Z,1.98
2023-03-06T04:19:00.794Z,1.96
2023-03-06T04:21:29.305Z,1.96
2023-03-06T04:23:58.494Z,1.97
2023-03-06T04:26:26.477Z,1.98
2023-03-06T04:28:56.088Z,1.97
2023-03-06T04:31:24.124Z,1.97
2023-03-06T04:33:52.519Z,1.98
2023-03-06T04:36:32.813Z,1.98
2023-03-06T04:39:06.057Z,1.98
2023-03-06T04:41:35.624Z,2.04
2023-03-06T04:44:03.654Z,2.04
2023-03-06T04:46:31.654Z,2.03
2023-03-06T04:48:59.628Z,2.04
2023-03-06T04:51:27.793Z,1.97
2023-03-06T04:53:56.195Z,1.90
2023-03-06T04:56:24.159Z,1.94
2023-03-06T04:58:52.050Z,1.98
2023-03-06T05:01:20.121Z,1.96
2023-03-06T05:03:49.743Z,1.90
2023-03-06T05:06:17.635Z,1.94
2023-03-06T05:08:45.483Z,1.93
2023-03-06T05:11:13.308Z,1.94
2023-03-06T05:13:41.460Z,1.97
2023-03-06T05:16:10.365Z,1.98
2023-03-06T05:18:38.442Z,1.91
2023-03-06T05:21:07.167Z,1.89
2023-03-06T05:23:38.355Z,1.81
2023-03-06T05:26:09.907Z,1.80
2023-03-06T05:28:37.987Z,1.81
2023-03-06T05:31:06.984Z,1.84
2023-03-06T05:33:35.939Z,1.77
2023-03-06T05:36:04.562Z,1.83
2023-03-06T05:38:32.965Z,1.86
2023-03-06T05:41:00.911Z,1.86
2023-03-06T05:43:28.878Z,1.89
2023-03-06T05:46:05.103Z,1.87
2023-03-06T05:48:34.847Z,1.90
2023-03-06T05:51:03.952Z,1.86
2023-03-06T05:53:32.693Z,1.87
2023-03-06T05:56:04.091Z,1.86
2023-03-06T05:58:33.723Z,1.90
2023-03-06T06:01:08.154Z,1.97
2023-03-06T06:03:36.227Z,2.01
2023-03-06T06:06:05.480Z,2.04
2023-03-06T06:08:33.526Z,2.08
2023-03-06T06:11:01.758Z,2.13
2023-03-06T06:13:29.866Z,2.11
2023-03-06T06:15:57.847Z,2.18
2023-03-06T06:18:25.740Z,2.20
2023-03-06T06:20:55.861Z,2.25
2023-03-06T06:23:23.969Z,2.29
2023-03-06T06:25:51.774Z,2.34
2023-03-06T06:28:19.762Z,2.34
2023-03-06T06:30:48.044Z,2.39
2023-03-06T06:33:16.333Z,2.44
2023-03-06T06:35:44.909Z,2.45
2023-03-06T06:38:13.408Z,2.46
2023-03-06T06:40:41.968Z,2.52
2023-03-06T06:43:10.258Z,2.56
2023-03-06T06:45:39.794Z,2.55
2023-03-06T06:48:08.961Z,2.59
2023-03-06T06:50:37.085Z,2.64
2023-03-06T06:53:05.065Z,2.66
2023-03-06T06:55:33.188Z,2.76
2023-03-06T06:58:01.412Z,2.83
2023-03-06T07:00:29.984Z,2.86
2023-03-06T07:02:58.808Z,2.83
2023-03-06T07:05:26.908Z,2.90
2023-03-06T07:07:54.942Z,2.91
2023-03-06T07:10:23.129Z,2.91
2023-03-06T07:12:51.202Z,2.98
2023-03-06T07:15:20.130Z,3.00
2023-03-06T07:17:50.146Z,3.07
2023-03-06T07:20:19.304Z,3.04
2023-03-06T07:22:51.189Z,3.08
2023-03-06T07:25:20.255Z,3.17
2023-03-06T07:27:53.378Z,3.49
2023-03-06T07:30:23.571Z,4.50
2023-03-06T07:32:59.907Z,4.07
2023-03-06T07:35:28.323Z,3.98
2023-03-06T07:37:56.303Z,4.14
2023-03-06T07:40:24.670Z,4.04
2023-03-06T07:43:06.225Z,4.17
2023-03-06T07:45:42.959Z,4.07
2023-03-06T07:48:10.815Z,4.04
2023-03-06T07:50:39.170Z,3.91
2023-03-06T07:53:07.355Z,3.98
2023-03-06T07:55:35.325Z,3.84
2023-03-06T07:58:03.248Z,3.55
2023-03-06T08:00:31.193Z,3.66
2023-03-06T08:02:59.223Z,3.95
2023-03-06T08:05:27.594Z,4.52
2023-03-06T08:07:55.527Z,4.56
2023-03-06T08:10:23.537Z,4.76
2023-03-06T08:12:51.665Z,5.00
2023-03-06T08:15:19.691Z,5.27
2023-03-06T08:17:47.710Z,5.22
2023-03-06T08:20:16.051Z,5.56
2023-03-06T08:22:44.549Z,5.66
2023-03-06T08:25:15.880Z,5.31
2023-03-06T08:27:43.834Z,4.49
2023-03-06T08:30:12.301Z,4.34
2023-03-06T08:32:40.406Z,4.25
2023-03-06T08:35:08.970Z,4.39
2023-03-06T08:37:37.167Z,4.32
2023-03-06T08:40:05.551Z,4.44
2023-03-06T08:42:33.454Z,4.70
2023-03-06T08:45:01.441Z,4.79
2023-03-06T08:47:29.368Z,5.00
2023-03-06T08:50:00.206Z,4.81
2023-03-06T08:52:28.555Z,4.80
2023-03-06T08:54:58.018Z,4.60
2023-03-06T08:57:26.024Z,4.45
2023-03-06T08:59:53.943Z,4.41
2023-03-06T09:02:21.934Z,4.28
2023-03-06T09:04:50.041Z,4.46
2023-03-06T09:07:17.898Z,4.60
2023-03-06T09:09:45.908Z,4.76
2023-03-06T09:12:13.832Z,4.59
2023-03-06T09:14:41.751Z,4.57
2023-03-06T09:17:09.653Z,4.53
2023-03-06T09:19:38.629Z,4.57
2023-03-06T09:22:06.741Z,4.62
2023-03-06T09:24:34.913Z,4.70
2023-03-06T09:27:03.168Z,4.87
2023-03-06T09:29:31.402Z,4.97
2023-03-06T09:31:59.417Z,5.24
2023-03-06T09:34:27.810Z,5.55
2023-03-06T09:36:57.655Z,5.78
2023-03-06T09:39:27.156Z,5.86
2023-03-06T09:41:57.382Z,5.77
2023-03-06T09:44:31.354Z,5.73
2023-03-06T09:47:07.062Z,5.77
2023-03-06T09:50:05.002Z,5.60
2023-03-06T09:52:33.079Z,5.50
2023-03-06T09:55:09.425Z,5.56
2023-03-06T09:57:42.744Z,5.53
2023-03-06T10:00:19.151Z,5.62
2023-03-06T10:02:57.340Z,5.52
2023-03-06T10:05:48.855Z,5.46
2023-03-06T10:08:54.595Z,5.36
2023-03-06T10:11:51.999Z,5.29
2023-03-06T10:14:42.003Z,5.34
2023-03-06T10:17:17.891Z,5.57
2023-03-06T10:19:49.381Z,5.71
2023-03-06T10:22:31.547Z,5.64
2023-03-06T10:25:22.645Z,5.73
2023-03-06T10:28:10.698Z,6.18
2023-03-06T10:31:12.099Z,6.12
2023-03-06T10:33:51.855Z,5.97
2023-03-06T10:36:22.576Z,6.08
2023-03-06T10:38:50.652Z,6.05
2023-03-06T10:41:21.884Z,6.17
2023-03-06T10:44:02.099Z,6.42
2023-03-06T10:46:39.421Z,6.94
2023-03-06T10:49:22.829Z,7.29
2023-03-06T10:52:13.632Z,7.23
2023-03-06T10:54:44.452Z,7.00
2023-03-06T10:57:32.740Z,6.90
2023-03-06T11:00:08.721Z,6.95
2023-03-06T11:02:41.168Z,6.94
2023-03-06T11:05:22.149Z,6.79
2023-03-06T11:08:00.434Z,6.74
2023-03-06T11:10:31.673Z,6.72
2023-03-06T11:13:21.737Z,6.47
2023-03-06T11:16:02.839Z,6.38
2023-03-06T11:18:37.866Z,6.30
2023-03-06T11:21:07.443Z,6.43
2023-03-06T11:23:46.632Z,6.38
2023-03-06T11:26:17.644Z,6.43
2023-03-06T11:29:17.415Z,6.26
2023-03-06T11:31:52.799Z,6.35
2023-03-06T11:34:58.049Z,6.49
2023-03-06T11:37:37.589Z,6.60
2023-03-06T11:40:28.902Z,6.87
2023-03-06T11:43:17.160Z,6.97
2023-03-06T11:45:54.696Z,7.00
2023-03-06T11:48:25.959Z,7.16
2023-03-06T11:51:02.751Z,7.26
2023-03-06T11:53:35.358Z,7.25
2023-03-06T11:56:23.389Z,7.32
2023-03-06T11:59:10.018Z,7.23
2023-03-06T12:01:57.611Z,7.30
2023-03-06T12:04:32.047Z,7.47
2023-03-06T12:07:18.490Z,7.52
2023-03-06T12:10:23.307Z,7.64
2023-03-06T12:13:06.648Z,7.73
2023-03-06T12:15:37.627Z,7.66
2023-03-06T12:18:16.926Z,7.63
2023-03-06T12:20:57.219Z,7.73
2023-03-06T12:23:52.792Z,7.85
2023-03-06T12:26:51.628Z,7.92
2023-03-06T12:29:36.392Z,7.64
2023-03-06T12:32:35.177Z,7.63
2023-03-06T12:35:16.020Z,7.83
2023-03-06T12:38:32.206Z,8.16
2023-03-06T12:41:03.042Z,8.29
2023-03-06T12:43:53.171Z,8.05
2023-03-06T12:46:26.779Z,7.98
2023-03-06T12:49:32.658Z,8.08
2023-03-06T12:52:02.195Z,8.19
2023-03-06T12:54:33.421Z,8.33
2023-03-06T12:57:02.443Z,8.43
2023-03-06T12:59:44.229Z,8.63
2023-03-06T13:02:41.431Z,8.63
2023-03-06T13:05:31.232Z,8.49
2023-03-06T13:08:17.454Z,8.36
2023-03-06T13:11:03.950Z,8.36
2023-03-06T13:13:41.423Z,8.36
2023-03-06T13:16:15.036Z,8.22
2023-03-06T13:18:42.900Z,8.09
2023-03-06T13:21:49.650Z,8.05
2023-03-06T13:24:25.044Z,8.18
2023-03-06T13:26:54.633Z,8.19
2023-03-06T13:29:37.627Z,8.16
2023-03-06T13:32:16.379Z,8.13
2023-03-06T13:34:50.158Z,8.19
2023-03-06T13:37:18.614Z,8.24
2023-03-06T13:40:04.395Z,8.26
2023-03-06T13:42:42.895Z,8.22
2023-03-06T13:45:25.896Z,8.12
2023-03-06T13:50:49.497Z,7.98
2023-03-06T13:53:56.219Z,8.21
2023-03-06T13:56:55.367Z,8.18
2023-03-06T13:59:43.912Z,8.29
2023-03-06T14:02:51.611Z,8.35
2023-03-06T14:05:20.423Z,8.21
2023-03-06T14:08:09.321Z,8.19
2023-03-06T14:10:38.914Z,8.30
2023-03-06T14:13:14.204Z,8.22
2023-03-06T14:15:52.595Z,8.35
2023-03-06T14:18:36.950Z,8.33
2023-03-06T14:21:11.909Z,8.32
2023-03-06T14:23:44.941Z,8.19
2023-03-06T14:26:17.687Z,8.38
2023-03-06T14:28:53.320Z,8.42
2023-03-06T14:31:26.026Z,8.43
2023-03-06T14:33:57.454Z,8.26
2023-03-06T14:36:49.325Z,8.26
2023-03-06T14:39:39.287Z,8.38
2023-03-06T14:42:16.137Z,8.36
2023-03-06T14:44:44.498Z,8.33
2023-03-06T14:47:28.594Z,8.16
2023-03-06T14:50:25.888Z,7.98
2023-03-06T14:53:04.285Z,7.84
2023-03-06T14:55:35.405Z,7.64
2023-03-06T14:58:13.581Z,7.59
2023-03-06T15:00:45.824Z,7.57
2023-03-06T15:03:36.181Z,7.52
2023-03-06T15:06:05.345Z,7.49
2023-03-06T15:08:36.378Z,7.43
2023-03-06T15:11:06.361Z,7.38
2023-03-06T15:13:35.403Z,7.30
2023-03-06T15:16:06.599Z,7.26
2023-03-06T15:18:54.171Z,7.05
2023-03-06T15:21:23.933Z,6.54
2023-03-06T15:23:53.889Z,6.17
2023-03-06T15:26:33.304Z,5.97
2023-03-06T15:29:13.701Z,5.83
2023-03-06T15:31:43.694Z,5.73
2023-03-06T15:34:11.604Z,5.66
2023-03-06T15:36:48.572Z,5.59
2023-03-06T15:39:30.588Z,5.56
2023-03-06T15:42:14.324Z,5.36
2023-03-06T15:44:42.721Z,5.29
2023-03-06T15:47:11.892Z,5.27
2023-03-06T15:49:40.861Z,5.28
2023-03-06T15:52:09.079Z,5.18
2023-03-06T15:54:37.445Z,5.07
2023-03-06T15:57:07.270Z,5.14
2023-03-06T15:59:43.935Z,5.09
2023-03-06T16:02:20.273Z,5.12
2023-03-06T16:04:48.997Z,5.12
2023-03-06T16:07:17.196Z,5.14
2023-03-06T16:09:45.570Z,5.11
2023-03-06T16:12:19.237Z,5.05
2023-03-06T16:14:48.876Z,5.17
2023-03-06T16:17:17.455Z,5.21
2023-03-06T16:19:45.606Z,5.34
2023-03-06T16:22:13.768Z,5.32
2023-03-06T16:24:41.827Z,5.28
2023-03-06T16:27:18.427Z,5.25
2023-03-06T16:29:46.625Z,5.24
2023-03-06T16:32:14.923Z,5.24
2023-03-06T16:34:42.920Z,5.24
2023-03-06T16:37:13.264Z,5.19
2023-03-06T16:39:41.280Z,5.14
2023-03-06T16:42:09.385Z,5.12
2023-03-06T16:44:37.286Z,5.08
2023-03-06T16:47:05.437Z,5.07
2023-03-06T16:49:33.381Z,5.04
2023-03-06T16:52:01.421Z,4.98
2023-03-06T16:54:29.244Z,5.00
2023-03-06T16:56:57.310Z,5.00
2023-03-06T16:59:25.331Z,4.91
2023-03-06T17:01:53.335Z,4.91
2023-03-06T17:04:21.625Z,4.84
2023-03-06T17:06:50.222Z,4.83
2023-03-06T17:09:18.277Z,4.81
2023-03-06T17:11:46.822Z,4.81
2023-03-06T17:14:14.970Z,4.76
2023-03-06T17:16:43.085Z,4.74
2023-03-06T17:19:16.659Z,4.76
2023-03-06T17:21:44.912Z,4.69
2023-03-06T17:24:12.873Z,4.60
2023-03-06T17:26:40.762Z,4.55
2023-03-06T17:29:12.151Z,4.49
2023-03-06T17:31:40.278Z,4.41
2023-03-06T17:34:08.716Z,4.35
2023-03-06T17:36:37.338Z,4.34
2023-03-06T17:39:05.505Z,4.32
2023-03-06T17:41:34.169Z,4.32
2023-03-06T17:44:02.122Z,4.28
2023-03-06T17:46:32.027Z,4.29
2023-03-06T17:49:00.223Z,4.25
2023-03-06T17:51:28.178Z,4.24
2023-03-06T17:53:56.375Z,4.24
2023-03-06T17:56:24.519Z,4.21
2023-03-06T17:58:52.735Z,4.24
2023-03-06T18:01:23.206Z,4.24
2023-03-06T18:03:51.827Z,4.21
2023-03-06T18:06:22.266Z,4.14
2023-03-06T18:08:52.683Z,4.17
2023-03-06T18:11:21.889Z,4.24
2023-03-06T18:13:50.141Z,4.24
2023-03-06T18:16:20.959Z,4.27
2023-03-06T18:18:52.784Z,4.25
2023-03-06T18:21:21.628Z,4.24
2023-03-06T18:23:49.834Z,4.21
2023-03-06T18:26:21.621Z,4.19
2023-03-06T18:28:53.834Z,4.15
2023-03-06T18:31:28.603Z,4.21
2023-03-06T18:33:58.666Z,4.18
2023-03-06T18:36:29.443Z,4.24
2023-03-06T18:38:58.356Z,4.17
2023-03-06T18:41:26.478Z,4.17
2023-03-06T18:44:01.455Z,4.11
2023-03-06T18:46:38.534Z,4.19
2023-03-06T18:49:07.486Z,4.22
2023-03-06T18:51:36.423Z,4.21
2023-03-06T18:54:06.433Z,4.25
2023-03-06T18:56:37.742Z,4.21
2023-03-06T18:59:08.514Z,4.21
2023-03-06T19:01:37.657Z,4.18
2023-03-06T19:04:09.165Z,4.19
2023-03-06T19:06:39.334Z,4.15
2023-03-06T19:09:08.042Z,4.14
2023-03-06T19:11:39.224Z,4.09
2023-03-06T19:14:07.766Z,4.02
2023-03-06T19:16:35.931Z,4.00
2023-03-06T19:19:06.876Z,4.01
2023-03-06T19:21:35.136Z,4.01
2023-03-06T19:24:03.423Z,3.95
2023-03-06T19:26:31.407Z,4.01
2023-03-06T19:28:59.600Z,3.94
2023-03-06T19:31:29.700Z,3.89
2023-03-06T19:33:58.457Z,3.87
2023-03-06T19:36:33.637Z,3.89
2023-03-06T19:39:04.277Z,3.86
2023-03-06T19:41:33.200Z,3.80
2023-03-06T19:44:05.905Z,3.74
2023-03-06T19:46:36.107Z,3.79
2023-03-06T19:49:12.394Z,3.72
2023-03-06T19:51:40.902Z,3.74
2023-03-06T19:54:12.487Z,3.72
2023-03-06T19:56:40.941Z,3.70
2023-03-06T19:59:08.759Z,3.66
2023-03-06T20:01:38.085Z,3.63
2023-03-06T20:04:06.097Z,3.60
2023-03-06T20:06:36.625Z,3.67
2023-03-06T20:09:08.128Z,3.64
2023-03-06T20:11:36.171Z,3.63
2023-03-06T20:14:05.954Z,3.56
2023-03-06T20:16:34.508Z,3.51
2023-03-06T20:19:03.615Z,3.53
2023-03-06T20:21:33.849Z,3.53
2023-03-06T20:24:02.060Z,3.49
2023-03-06T20:26:30.604Z,3.48
2023-03-06T20:28:59.255Z,3.40
2023-03-06T20:31:30.215Z,3.43
2023-03-06T20:33:59.541Z,3.39
2023-03-06T20:36:30.293Z,3.38
2023-03-06T20:39:01.463Z,3.40
2023-03-06T20:41:30.835Z,3.38
2023-03-06T20:44:00.542Z,3.36
2023-03-06T20:46:28.762Z,3.22
2023-03-06T20:48:58.324Z,3.29
2023-03-06T20:51:28.934Z,3.35
2023-03-06T20:53:57.553Z,3.35
2023-03-06T20:56:29.210Z,3.39
2023-03-06T20:58:59.650Z,3.39
2023-03-06T21:01:30.587Z,3.40
2023-03-06T21:04:00.140Z,3.36
2023-03-06T21:06:29.387Z,3.38
2023-03-06T21:08:58.650Z,3.39
2023-03-06T21:11:27.146Z,3.43
2023-03-06T21:13:55.496Z,3.49
2023-03-06T21:16:25.291Z,3.51
2023-03-06T21:18:55.390Z,3.55
2023-03-06T21:21:28.176Z,3.63
2023-03-06T21:23:56.461Z,3.70
2023-03-06T21:26:26.762Z,3.72
2023-03-06T21:28:57.090Z,3.80
2023-03-06T21:31:26.207Z,3.80
2023-03-06T21:33:54.895Z,3.80
2023-03-06T21:36:23.498Z,3.87
2023-03-06T21:38:53.040Z,3.89
2023-03-06T21:41:26.950Z,3.95
2023-03-06T21:44:00.347Z,3.98
2023-03-06T21:46:29.189Z,4.04
2023-03-06T21:48:58.048Z,4.09
2023-03-06T21:51:27.940Z,4.09
2023-03-06T21:53:56.229Z,4.14
2023-03-06T21:56:27.921Z,4.14
2023-03-06T21:58:56.572Z,4.18
2023-03-06T22:01:27.238Z,4.19
2023-03-06T22:03:55.637Z,4.21
2023-03-06T22:06:26.134Z,4.25
2023-03-06T22:08:56.069Z,4.27
2023-03-06T22:11:25.388Z,4.29
2023-03-06T22:13:53.761Z,4.35
2023-03-06T22:16:21.767Z,4.38
2023-03-06T22:18:51.178Z,4.44
2023-03-06T22:21:21.529Z,4.45
2023-03-06T22:23:50.924Z,4.49
2023-03-06T22:26:19.409Z,4.49
2023-03-06T22:28:47.265Z,4.49
2023-03-06T22:31:17.658Z,4.55
2023-03-06T22:33:46.154Z,4.50
2023-03-06T22:36:15.746Z,4.57
2023-03-06T22:38:45.315Z,4.57
2023-03-06T22:41:15.542Z,4.64
2023-03-06T22:43:43.845Z,4.64
2023-03-06T22:46:17.093Z,4.67
2023-03-06T22:48:45.524Z,4.69
2023-03-06T22:51:19.538Z,4.72
2023-03-06T22:53:48.296Z,4.72
2023-03-06T22:56:18.999Z,4.67
2023-03-06T22:58:47.529Z,4.74
2023-03-06T23:01:21.163Z,4.70
2023-03-06T23:04:00.439Z,4.74
2023-03-06T23:06:33.888Z,4.76
2023-03-06T23:09:03.514Z,4.79
2023-03-06T23:11:32.000Z,4.76
2023-03-06T23:14:19.397Z,4.72
2023-03-06T23:17:06.165Z,4.67
2023-03-06T23:19:53.895Z,4.64
2023-03-06T23:22:40.354Z,4.63
2023-03-06T23:25:27.030Z,4.63
2023-03-06T23:27:55.816Z,4.62
2023-03-06T23:30:23.826Z,4.67
2023-03-06T23:32:51.824Z,4.64
2023-03-06T23:35:19.797Z,4.67
2023-03-06T23:37:47.787Z,4.66
2023-03-06T23:40:16.518Z,4.69
2023-03-06T23:42:44.491Z,4.67
2023-03-06T23:45:12.414Z,4.69
2023-03-06T23:47:40.454Z,4.67
2023-03-06T23:50:08.818Z,4.69
2023-03-06T23:52:37.303Z,4.67
2023-03-06T23:55:06.566Z,4.69
2023-03-06T23:57:34.743Z,4.67
